sensor_id;sensor_type;location;lat;lon;timestamp;temperature;humidity
563;DHT22;266;49.514;8.294;2023-02-03T00:01:22;8.60;99.90
563;DHT22;266;49.514;8.294;2023-02-03T00:03:50;8.60;99.90
563;DHT22;266;49.514;8.294;2023-02-03T00:06:18;8.50;99.90
563;DHT22;266;49.514;8.294;2023-02-03T00:08:48;8.50;99.90
563;DHT22;266;49.514;8.294;2023-02-03T00:11:16;8.50;99.90
563;DHT22;266;49.514;8.294;2023-02-03T00:13:44;8.40;99.90
563;DHT22;266;49.514;8.294;2023-02-03T00:16:12;8.40;99.90
563;DHT22;266;49.514;8.294;2023-02-03T00:18:39;8.50;99.90
563;DHT22;266;49.514;8.294;2023-02-03T00:21:07;8.50;99.90
563;DHT22;266;49.514;8.294;2023-02-03T00:23:35;8.50;99.90
563;DHT22;266;49.514;8.294;2023-02-03T00:26:09;8.40;99.90
563;DHT22;266;49.514;8.294;2023-02-03T00:28:37;8.50;99.90
563;DHT22;266;49.514;8.294;2023-02-03T00:31:05;8.50;99.90
563;DHT22;266;49.514;8.294;2023-02-03T00:33:33;8.50;99.90
563;DHT22;266;49.514;8.294;2023-02-03T00:36:04;8.50;99.90
563;DHT22;266;49.514;8.294;2023-02-03T00:38:32;8.50;99.90
563;DHT22;266;49.514;8.294;2023-02-03T00:41:00;8.50;99.90
563;DHT22;266;49.514;8.294;2023-02-03T00:43:29;8.50;99.90
563;DHT22;266;49.514;8.294;2023-02-03T00:45:57;8.50;99.90
563;DHT22;266;49.514;8.294;2023-02-03T00:48:25;8.60;99.90
563;DHT22;266;49.514;8.294;2023-02-03T00:50:53;8.50;99.90
563;DHT22;266;49.514;8.294;2023-02-03T00:53:21;8.50;99.90
563;DHT22;266;49.514;8.294;2023-02-03T00:55:49;8.60;99.90
563;DHT22;266;49.514;8.294;2023-02-03T00:58:17;8.60;99.90
563;DHT22;266;49.514;8.294;2023-02-03T01:00:46;8.50;99.90
563;DHT22;266;49.514;8.294;2023-02-03T01:03:15;8.50;99.90
563;DHT22;266;49.514;8.294;2023-02-03T01:05:43;8.50;99.90
563;DHT22;266;49.514;8.294;2023-02-03T01:08:11;8.50;99.90
563;DHT22;266;49.514;8.294;2023-02-03T01:10:39;8.50;99.90
563;DHT22;266;49.514;8.294;2023-02-03T01:13:07;8.50;99.90
563;DHT22;266;49.514;8.294;2023-02-03T01:15:34;8.50;99.90
563;DHT22;266;49.514;8.294;2023-02-03T01:18:04;8.60;99.90
563;DHT22;266;49.514;8.294;2023-02-03T01:20:32;8.60;99.90
563;DHT22;266;49.514;8.294;2023-02-03T01:22:59;8.60;99.90
563;DHT22;266;49.514;8.294;2023-02-03T01:25:27;8.60;99.90
563;DHT22;266;49.514;8.294;2023-02-03T01:27:55;8.60;99.90
563;DHT22;266;49.514;8.294;2023-02-03T01:30:23;8.60;99.90
563;DHT22;266;49.514;8.294;2023-02-03T01:32:51;8.60;99.90
563;DHT22;266;49.514;8.294;2023-02-03T01:35:21;8.60;99.90
563;DHT22;266;49.514;8.294;2023-02-03T01:37:48;8.50;99.90
563;DHT22;266;49.514;8.294;2023-02-03T01:40:17;8.50;99.90
563;DHT22;266;49.514;8.294;2023-02-03T01:42:45;8.50;99.90
563;DHT22;266;49.514;8.294;2023-02-03T01:45:13;8.50;99.90
563;DHT22;266;49.514;8.294;2023-02-03T01:47:44;8.60;99.90
563;DHT22;266;49.514;8.294;2023-02-03T01:50:15;8.50;99.90
563;DHT22;266;49.514;8.294;2023-02-03T01:52:50;8.50;99.90
563;DHT22;266;49.514;8.294;2023-02-03T01:55:22;8.50;99.90
563;DHT22;266;49.514;8.294;2023-02-03T01:57:54;8.50;99.90
563;DHT22;266;49.514;8.294;2023-02-03T02:00:23;8.50;99.90
563;DHT22;266;49.514;8.294;2023-02-03T02:02:52;8.50;99.90
563;DHT22;266;49.514;8.294;2023-02-03T02:05:26;8.50;99.90
563;DHT22;266;49.514;8.294;2023-02-03T02:07:57;8.50;99.90
563;DHT22;266;49.514;8.294;2023-02-03T02:10:27;8.50;99.90
563;DHT22;266;49.514;8.294;2023-02-03T02:12:56;8.50;99.90
563;DHT22;266;49.514;8.294;2023-02-03T02:15:32;8.60;99.90
563;DHT22;266;49.514;8.294;2023-02-03T02:18:21;8.60;99.90
563;DHT22;266;49.514;8.294;2023-02-03T02:21:06;8.50;99.90
563;DHT22;266;49.514;8.294;2023-02-03T02:23:55;8.60;99.90
563;DHT22;266;49.514;8.294;2023-02-03T02:26:44;8.60;99.90
563;DHT22;266;49.514;8.294;2023-02-03T02:29:47;8.60;99.90
563;DHT22;266;49.514;8.294;2023-02-03T02:32:29;8.60;99.90
563;DHT22;266;49.514;8.294;2023-02-03T02:35:03;8.60;99.90
563;DHT22;266;49.514;8.294;2023-02-03T02:37:40;8.60;99.90
563;DHT22;266;49.514;8.294;2023-02-03T02:40:18;8.60;99.90
563;DHT22;266;49.514;8.294;2023-02-03T02:42:57;8.60;99.90
563;DHT22;266;49.514;8.294;2023-02-03T02:45:29;8.60;99.90
563;DHT22;266;49.514;8.294;2023-02-03T02:48:03;8.60;99.90
563;DHT22;266;49.514;8.294;2023-02-03T02:50:37;8.60;99.90
563;DHT22;266;49.514;8.294;2023-02-03T02:53:07;8.60;99.90
563;DHT22;266;49.514;8.294;2023-02-03T02:55:37;8.60;99.90
563;DHT22;266;49.514;8.294;2023-02-03T02:58:08;8.60;99.90
563;DHT22;266;49.514;8.294;2023-02-03T03:00:39;8.60;99.90
563;DHT22;266;49.514;8.294;2023-02-03T03:03:16;8.60;99.90
563;DHT22;266;49.514;8.294;2023-02-03T03:05:48;8.70;99.90
563;DHT22;266;49.514;8.294;2023-02-03T03:08:20;8.70;99.90
563;DHT22;266;49.514;8.294;2023-02-03T03:10:49;8.70;99.90
563;DHT22;266;49.514;8.294;2023-02-03T03:13:23;8.70;99.90
563;DHT22;266;49.514;8.294;2023-02-03T03:15:53;8.70;99.90
563;DHT22;266;49.514;8.294;2023-02-03T03:18:27;8.70;99.90
563;DHT22;266;49.514;8.294;2023-02-03T03:20:56;8.70;99.90
563;DHT22;266;49.514;8.294;2023-02-03T03:23:35;8.70;99.90
563;DHT22;266;49.514;8.294;2023-02-03T03:26:10;8.70;99.90
563;DHT22;266;49.514;8.294;2023-02-03T03:28:44;8.70;99.90
563;DHT22;266;49.514;8.294;2023-02-03T03:31:13;8.70;99.90
563;DHT22;266;49.514;8.294;2023-02-03T03:33:43;8.70;99.90
563;DHT22;266;49.514;8.294;2023-02-03T03:36:18;8.70;99.90
563;DHT22;266;49.514;8.294;2023-02-03T03:38:54;8.70;99.90
563;DHT22;266;49.514;8.294;2023-02-03T03:41:28;8.70;99.90
563;DHT22;266;49.514;8.294;2023-02-03T03:44:02;8.70;99.90
563;DHT22;266;49.514;8.294;2023-02-03T03:46:35;8.70;99.90
563;DHT22;266;49.514;8.294;2023-02-03T03:49:09;8.70;99.90
563;DHT22;266;49.514;8.294;2023-02-03T03:51:40;8.70;99.90
563;DHT22;266;49.514;8.294;2023-02-03T03:54:13;8.70;99.90
563;DHT22;266;49.514;8.294;2023-02-03T03:56:45;8.60;99.90
563;DHT22;266;49.514;8.294;2023-02-03T03:59:17;8.60;99.90
563;DHT22;266;49.514;8.294;2023-02-03T04:01:47;8.60;99.90
563;DHT22;266;49.514;8.294;2023-02-03T04:04:18;8.60;99.90
563;DHT22;266;49.514;8.294;2023-02-03T04:06:46;8.60;99.90
563;DHT22;266;49.514;8.294;2023-02-03T04:09:14;8.60;99.90
563;DHT22;266;49.514;8.294;2023-02-03T04:11:43;8.70;99.90
563;DHT22;266;49.514;8.294;2023-02-03T04:14:30;8.70;99.90
563;DHT22;266;49.514;8.294;2023-02-03T04:16:59;8.70;99.90
563;DHT22;266;49.514;8.294;2023-02-03T04:19:28;8.70;99.90
563;DHT22;266;49.514;8.294;2023-02-03T04:21:56;8.70;99.90
563;DHT22;266;49.514;8.294;2023-02-03T04:24:24;8.70;99.90
563;DHT22;266;49.514;8.294;2023-02-03T04:26:52;8.70;99.90
563;DHT22;266;49.514;8.294;2023-02-03T04:29:20;8.70;99.90
563;DHT22;266;49.514;8.294;2023-02-03T04:31:48;8.70;99.90
563;DHT22;266;49.514;8.294;2023-02-03T04:34:16;8.70;99.90
563;DHT22;266;49.514;8.294;2023-02-03T04:36:45;8.70;99.90
563;DHT22;266;49.514;8.294;2023-02-03T04:39:13;8.70;99.90
563;DHT22;266;49.514;8.294;2023-02-03T04:41:40;8.70;99.90
563;DHT22;266;49.514;8.294;2023-02-03T04:44:08;8.70;99.90
563;DHT22;266;49.514;8.294;2023-02-03T04:46:36;8.80;99.90
563;DHT22;266;49.514;8.294;2023-02-03T04:49:04;8.70;99.90
563;DHT22;266;49.514;8.294;2023-02-03T04:51:32;8.80;99.90
563;DHT22;266;49.514;8.294;2023-02-03T04:54:01;8.70;99.90
563;DHT22;266;49.514;8.294;2023-02-03T04:56:29;8.80;99.90
563;DHT22;266;49.514;8.294;2023-02-03T04:58:57;8.80;99.90
563;DHT22;266;49.514;8.294;2023-02-03T05:01:25;8.80;99.90
563;DHT22;266;49.514;8.294;2023-02-03T05:03:53;8.80;99.90
563;DHT22;266;49.514;8.294;2023-02-03T05:06:22;8.80;99.90
563;DHT22;266;49.514;8.294;2023-02-03T05:08:51;8.80;99.90
563;DHT22;266;49.514;8.294;2023-02-03T05:11:21;8.90;99.90
563;DHT22;266;49.514;8.294;2023-02-03T05:13:49;8.90;99.90
563;DHT22;266;49.514;8.294;2023-02-03T05:16:17;8.90;99.90
563;DHT22;266;49.514;8.294;2023-02-03T05:18:45;8.80;99.90
563;DHT22;266;49.514;8.294;2023-02-03T05:21:13;8.80;99.90
563;DHT22;266;49.514;8.294;2023-02-03T05:23:41;8.80;99.90
563;DHT22;266;49.514;8.294;2023-02-03T05:26:09;8.80;99.90
563;DHT22;266;49.514;8.294;2023-02-03T05:28:56;8.80;99.90
563;DHT22;266;49.514;8.294;2023-02-03T05:31:23;8.80;99.90
563;DHT22;266;49.514;8.294;2023-02-03T05:33:51;8.70;99.90
563;DHT22;266;49.514;8.294;2023-02-03T05:36:19;8.70;99.90
563;DHT22;266;49.514;8.294;2023-02-03T05:38:47;8.80;99.90
563;DHT22;266;49.514;8.294;2023-02-03T05:41:15;8.80;99.90
563;DHT22;266;49.514;8.294;2023-02-03T05:44:02;8.80;99.90
563;DHT22;266;49.514;8.294;2023-02-03T05:46:30;8.70;99.90
563;DHT22;266;49.514;8.294;2023-02-03T05:48:58;8.80;99.90
563;DHT22;266;49.514;8.294;2023-02-03T05:51:26;8.80;99.90
563;DHT22;266;49.514;8.294;2023-02-03T05:53:54;8.80;99.90
563;DHT22;266;49.514;8.294;2023-02-03T05:56:22;8.80;99.90
563;DHT22;266;49.514;8.294;2023-02-03T05:58:50;8.80;99.90
563;DHT22;266;49.514;8.294;2023-02-03T06:01:20;8.80;99.90
563;DHT22;266;49.514;8.294;2023-02-03T06:03:48;8.70;99.90
563;DHT22;266;49.514;8.294;2023-02-03T06:06:17;8.70;99.90
563;DHT22;266;49.514;8.294;2023-02-03T06:08:45;8.70;99.90
563;DHT22;266;49.514;8.294;2023-02-03T06:11:13;8.70;99.90
563;DHT22;266;49.514;8.294;2023-02-03T06:13:40;8.80;99.90
563;DHT22;266;49.514;8.294;2023-02-03T06:16:08;8.80;99.90
563;DHT22;266;49.514;8.294;2023-02-03T06:18:37;8.80;99.90
563;DHT22;266;49.514;8.294;2023-02-03T06:21:05;8.80;99.90
563;DHT22;266;49.514;8.294;2023-02-03T06:23:33;8.80;99.90
563;DHT22;266;49.514;8.294;2023-02-03T06:26:01;8.80;99.90
563;DHT22;266;49.514;8.294;2023-02-03T06:28:29;8.80;99.90
563;DHT22;266;49.514;8.294;2023-02-03T06:30:59;8.80;99.90
563;DHT22;266;49.514;8.294;2023-02-03T06:33:27;8.70;99.90
563;DHT22;266;49.514;8.294;2023-02-03T06:35:56;8.70;99.90
563;DHT22;266;49.514;8.294;2023-02-03T06:38:24;8.70;99.90
563;DHT22;266;49.514;8.294;2023-02-03T06:40:53;8.70;99.90
563;DHT22;266;49.514;8.294;2023-02-03T06:43:26;8.70;99.90
563;DHT22;266;49.514;8.294;2023-02-03T06:45:55;8.70;99.90
563;DHT22;266;49.514;8.294;2023-02-03T06:48:23;8.70;99.90
563;DHT22;266;49.514;8.294;2023-02-03T06:50:51;8.70;99.90
563;DHT22;266;49.514;8.294;2023-02-03T06:53:21;8.60;99.90
563;DHT22;266;49.514;8.294;2023-02-03T06:55:48;8.50;99.90
563;DHT22;266;49.514;8.294;2023-02-03T06:58:16;8.60;99.90
563;DHT22;266;49.514;8.294;2023-02-03T07:00:44;8.60;99.90
563;DHT22;266;49.514;8.294;2023-02-03T07:03:12;8.60;99.90
563;DHT22;266;49.514;8.294;2023-02-03T07:05:40;8.60;99.90
563;DHT22;266;49.514;8.294;2023-02-03T07:08:09;8.60;99.90
563;DHT22;266;49.514;8.294;2023-02-03T07:10:40;8.60;99.90
563;DHT22;266;49.514;8.294;2023-02-03T07:13:08;8.60;99.90
563;DHT22;266;49.514;8.294;2023-02-03T07:15:36;8.60;99.90
563;DHT22;266;49.514;8.294;2023-02-03T07:18:04;8.60;99.90
563;DHT22;266;49.514;8.294;2023-02-03T07:20:32;8.60;99.90
563;DHT22;266;49.514;8.294;2023-02-03T07:23:00;8.70;99.90
563;DHT22;266;49.514;8.294;2023-02-03T07:25:28;8.70;99.90
563;DHT22;266;49.514;8.294;2023-02-03T07:28:12;8.70;99.90
563;DHT22;266;49.514;8.294;2023-02-03T07:30:42;8.70;99.90
563;DHT22;266;49.514;8.294;2023-02-03T07:33:12;8.70;99.90
563;DHT22;266;49.514;8.294;2023-02-03T07:35:41;8.70;99.90
563;DHT22;266;49.514;8.294;2023-02-03T07:38:10;8.70;99.90
563;DHT22;266;49.514;8.294;2023-02-03T07:40:39;8.70;99.90
563;DHT22;266;49.514;8.294;2023-02-03T07:43:08;8.80;99.90
563;DHT22;266;49.514;8.294;2023-02-03T07:45:36;8.80;99.90
563;DHT22;266;49.514;8.294;2023-02-03T07:48:04;8.80;99.90
563;DHT22;266;49.514;8.294;2023-02-03T07:50:32;8.80;99.90
563;DHT22;266;49.514;8.294;2023-02-03T07:53:01;8.80;99.90
563;DHT22;266;49.514;8.294;2023-02-03T07:55:29;8.80;99.90
563;DHT22;266;49.514;8.294;2023-02-03T07:57:57;8.80;99.90
563;DHT22;266;49.514;8.294;2023-02-03T08:00:30;8.80;99.90
563;DHT22;266;49.514;8.294;2023-02-03T08:02:58;8.80;99.90
563;DHT22;266;49.514;8.294;2023-02-03T08:05:26;8.90;99.90
563;DHT22;266;49.514;8.294;2023-02-03T08:07:55;8.90;99.90
563;DHT22;266;49.514;8.294;2023-02-03T08:10:22;8.90;99.90
563;DHT22;266;49.514;8.294;2023-02-03T08:12:52;8.90;99.90
563;DHT22;266;49.514;8.294;2023-02-03T08:15:20;8.90;99.90
563;DHT22;266;49.514;8.294;2023-02-03T08:17:50;9.00;99.90
563;DHT22;266;49.514;8.294;2023-02-03T08:20:18;8.90;99.90
563;DHT22;266;49.514;8.294;2023-02-03T08:22:46;8.90;99.90
563;DHT22;266;49.514;8.294;2023-02-03T08:25:14;8.90;99.90
563;DHT22;266;49.514;8.294;2023-02-03T08:27:42;9.00;99.90
563;DHT22;266;49.514;8.294;2023-02-03T08:30:12;9.00;99.90
563;DHT22;266;49.514;8.294;2023-02-03T08:32:40;9.00;99.90
563;DHT22;266;49.514;8.294;2023-02-03T08:35:10;9.20;99.90
563;DHT22;266;49.514;8.294;2023-02-03T08:37:37;9.20;99.90
563;DHT22;266;49.514;8.294;2023-02-03T08:40:06;9.30;99.90
563;DHT22;266;49.514;8.294;2023-02-03T08:42:34;9.20;99.90
563;DHT22;266;49.514;8.294;2023-02-03T08:45:03;9.20;99.90
563;DHT22;266;49.514;8.294;2023-02-03T08:47:31;9.20;99.90
563;DHT22;266;49.514;8.294;2023-02-03T08:49:59;9.20;99.90
563;DHT22;266;49.514;8.294;2023-02-03T08:52:28;9.20;99.90
563;DHT22;266;49.514;8.294;2023-02-03T08:54:56;9.10;99.90
563;DHT22;266;49.514;8.294;2023-02-03T08:57:24;9.10;99.90
563;DHT22;266;49.514;8.294;2023-02-03T08:59:54;9.10;99.90
563;DHT22;266;49.514;8.294;2023-02-03T09:02:22;9.20;99.90
563;DHT22;266;49.514;8.294;2023-02-03T09:04:50;9.20;99.90
563;DHT22;266;49.514;8.294;2023-02-03T09:07:18;9.20;99.90
563;DHT22;266;49.514;8.294;2023-02-03T09:09:47;9.30;99.90
563;DHT22;266;49.514;8.294;2023-02-03T09:12:15;9.30;99.90
563;DHT22;266;49.514;8.294;2023-02-03T09:14:43;9.30;99.90
563;DHT22;266;49.514;8.294;2023-02-03T09:17:11;9.30;99.90
563;DHT22;266;49.514;8.294;2023-02-03T09:19:39;9.40;99.90
563;DHT22;266;49.514;8.294;2023-02-03T09:22:07;9.40;99.90
563;DHT22;266;49.514;8.294;2023-02-03T09:24:35;9.40;99.90
563;DHT22;266;49.514;8.294;2023-02-03T09:27:04;9.40;99.90
563;DHT22;266;49.514;8.294;2023-02-03T09:29:32;9.40;99.90
563;DHT22;266;49.514;8.294;2023-02-03T09:32:00;9.50;99.90
563;DHT22;266;49.514;8.294;2023-02-03T09:34:32;9.60;99.90
563;DHT22;266;49.514;8.294;2023-02-03T09:37:00;9.60;99.90
563;DHT22;266;49.514;8.294;2023-02-03T09:39:30;9.80;99.90
563;DHT22;266;49.514;8.294;2023-02-03T09:42:22;9.90;99.90
563;DHT22;266;49.514;8.294;2023-02-03T09:45:02;9.90;99.90
563;DHT22;266;49.514;8.294;2023-02-03T09:47:37;9.90;99.90
563;DHT22;266;49.514;8.294;2023-02-03T09:50:11;9.80;99.90
563;DHT22;266;49.514;8.294;2023-02-03T09:52:41;9.80;99.90
563;DHT22;266;49.514;8.294;2023-02-03T09:55:19;9.80;99.90
563;DHT22;266;49.514;8.294;2023-02-03T09:57:57;9.70;99.90
563;DHT22;266;49.514;8.294;2023-02-03T10:00:30;9.60;99.90
563;DHT22;266;49.514;8.294;2023-02-03T10:03:04;9.60;99.90
563;DHT22;266;49.514;8.294;2023-02-03T10:05:50;9.70;99.90
563;DHT22;266;49.514;8.294;2023-02-03T10:08:29;9.70;99.90
563;DHT22;266;49.514;8.294;2023-02-03T10:11:05;9.80;99.90
563;DHT22;266;49.514;8.294;2023-02-03T10:13:49;9.80;99.90
563;DHT22;266;49.514;8.294;2023-02-03T10:19:18;9.90;99.90
563;DHT22;266;49.514;8.294;2023-02-03T10:21:48;10.10;99.90
563;DHT22;266;49.514;8.294;2023-02-03T10:24:20;10.10;99.90
563;DHT22;266;49.514;8.294;2023-02-03T10:26:51;10.20;99.90
563;DHT22;266;49.514;8.294;2023-02-03T10:29:34;10.30;99.90
563;DHT22;266;49.514;8.294;2023-02-03T10:32:07;10.40;99.90
563;DHT22;266;49.514;8.294;2023-02-03T10:34:36;10.20;99.90
563;DHT22;266;49.514;8.294;2023-02-03T10:37:12;10.20;99.90
563;DHT22;266;49.514;8.294;2023-02-03T10:39:45;10.20;99.90
563;DHT22;266;49.514;8.294;2023-02-03T10:42:14;10.20;99.90
563;DHT22;266;49.514;8.294;2023-02-03T10:44:48;10.10;99.90
563;DHT22;266;49.514;8.294;2023-02-03T10:47:24;10.10;99.90
563;DHT22;266;49.514;8.294;2023-02-03T10:49:56;10.10;99.90
563;DHT22;266;49.514;8.294;2023-02-03T10:52:27;10.00;99.90
563;DHT22;266;49.514;8.294;2023-02-03T10:54:57;10.00;99.90
563;DHT22;266;49.514;8.294;2023-02-03T10:57:27;10.00;99.90
563;DHT22;266;49.514;8.294;2023-02-03T11:00:07;10.10;99.90
563;DHT22;266;49.514;8.294;2023-02-03T11:02:37;10.10;99.90
563;DHT22;266;49.514;8.294;2023-02-03T11:05:18;10.00;99.90
563;DHT22;266;49.514;8.294;2023-02-03T11:07:47;10.00;99.90
563;DHT22;266;49.514;8.294;2023-02-03T11:10:33;10.10;99.90
563;DHT22;266;49.514;8.294;2023-02-03T11:13:20;10.10;99.90
563;DHT22;266;49.514;8.294;2023-02-03T11:15:56;10.20;99.90
563;DHT22;266;49.514;8.294;2023-02-03T11:18:31;10.20;99.90
563;DHT22;266;49.514;8.294;2023-02-03T11:21:08;10.20;99.90
563;DHT22;266;49.514;8.294;2023-02-03T11:23:45;10.10;99.90
563;DHT22;266;49.514;8.294;2023-02-03T11:26:18;10.10;99.90
563;DHT22;266;49.514;8.294;2023-02-03T11:28:51;10.00;99.90
563;DHT22;266;49.514;8.294;2023-02-03T11:31:23;10.00;99.90
563;DHT22;266;49.514;8.294;2023-02-03T11:33:59;10.00;99.90
563;DHT22;266;49.514;8.294;2023-02-03T11:36:29;10.00;99.90
563;DHT22;266;49.514;8.294;2023-02-03T11:39:10;10.00;99.90
563;DHT22;266;49.514;8.294;2023-02-03T11:41:43;10.00;99.90
563;DHT22;266;49.514;8.294;2023-02-03T11:44:19;10.00;99.90
563;DHT22;266;49.514;8.294;2023-02-03T11:46:55;10.00;99.90
563;DHT22;266;49.514;8.294;2023-02-03T11:49:57;10.00;99.90
563;DHT22;266;49.514;8.294;2023-02-03T11:52:47;9.90;99.90
563;DHT22;266;49.514;8.294;2023-02-03T11:55:30;9.90;99.90
563;DHT22;266;49.514;8.294;2023-02-03T11:58:19;9.90;99.90
563;DHT22;266;49.514;8.294;2023-02-03T12:01:03;9.90;99.90
563;DHT22;266;49.514;8.294;2023-02-03T12:03:54;9.90;99.90
563;DHT22;266;49.514;8.294;2023-02-03T12:06:53;9.80;99.90
563;DHT22;266;49.514;8.294;2023-02-03T12:09:41;9.80;99.90
563;DHT22;266;49.514;8.294;2023-02-03T12:12:31;9.80;99.90
563;DHT22;266;49.514;8.294;2023-02-03T12:15:23;9.80;99.90
563;DHT22;266;49.514;8.294;2023-02-03T12:18:12;9.70;99.90
563;DHT22;266;49.514;8.294;2023-02-03T12:21:01;9.60;99.90
563;DHT22;266;49.514;8.294;2023-02-03T12:23:45;9.70;99.90
563;DHT22;266;49.514;8.294;2023-02-03T12:26:19;9.60;99.90
563;DHT22;266;49.514;8.294;2023-02-03T12:28:54;9.60;99.90
563;DHT22;266;49.514;8.294;2023-02-03T12:31:29;9.60;99.90
563;DHT22;266;49.514;8.294;2023-02-03T12:34:05;9.80;99.90
563;DHT22;266;49.514;8.294;2023-02-03T12:36:42;9.80;99.90
563;DHT22;266;49.514;8.294;2023-02-03T12:39:18;9.90;99.90
563;DHT22;266;49.514;8.294;2023-02-03T12:41:51;9.90;99.90
563;DHT22;266;49.514;8.294;2023-02-03T12:44:24;9.90;99.90
563;DHT22;266;49.514;8.294;2023-02-03T12:46:59;9.90;99.90
563;DHT22;266;49.514;8.294;2023-02-03T12:49:38;9.90;99.90
563;DHT22;266;49.514;8.294;2023-02-03T12:52:16;9.80;99.90
563;DHT22;266;49.514;8.294;2023-02-03T12:54:51;9.80;99.90
563;DHT22;266;49.514;8.294;2023-02-03T12:57:24;9.80;99.90
563;DHT22;266;49.514;8.294;2023-02-03T13:00:05;9.70;99.90
563;DHT22;266;49.514;8.294;2023-02-03T13:02:43;9.80;99.90
563;DHT22;266;49.514;8.294;2023-02-03T13:05:19;9.80;99.90
563;DHT22;266;49.514;8.294;2023-02-03T13:07:54;9.80;99.90
563;DHT22;266;49.514;8.294;2023-02-03T13:10:28;9.80;99.90
563;DHT22;266;49.514;8.294;2023-02-03T13:12:58;9.90;99.90
563;DHT22;266;49.514;8.294;2023-02-03T13:15:45;9.90;99.90
563;DHT22;266;49.514;8.294;2023-02-03T13:18:22;10.00;99.90
563;DHT22;266;49.514;8.294;2023-02-03T13:20:52;10.00;99.90
563;DHT22;266;49.514;8.294;2023-02-03T13:23:26;10.00;99.90
563;DHT22;266;49.514;8.294;2023-02-03T13:26:06;10.00;99.90
563;DHT22;266;49.514;8.294;2023-02-03T13:28:48;10.00;99.90
563;DHT22;266;49.514;8.294;2023-02-03T13:31:31;10.00;99.90
563;DHT22;266;49.514;8.294;2023-02-03T13:37:56;10.00;99.90
563;DHT22;266;49.514;8.294;2023-02-03T13:40:40;9.90;99.90
563;DHT22;266;49.514;8.294;2023-02-03T13:43:13;9.80;99.90
563;DHT22;266;49.514;8.294;2023-02-03T13:46:07;9.80;99.90
563;DHT22;266;49.514;8.294;2023-02-03T13:48:50;9.80;99.90
563;DHT22;266;49.514;8.294;2023-02-03T13:51:20;9.70;99.90
563;DHT22;266;49.514;8.294;2023-02-03T13:53:58;9.70;99.90
563;DHT22;266;49.514;8.294;2023-02-03T13:56:31;9.70;99.90
563;DHT22;266;49.514;8.294;2023-02-03T13:59:03;9.80;99.90
563;DHT22;266;49.514;8.294;2023-02-03T14:01:35;9.70;99.90
563;DHT22;266;49.514;8.294;2023-02-03T14:04:07;9.70;99.90
563;DHT22;266;49.514;8.294;2023-02-03T14:06:58;9.70;99.90
563;DHT22;266;49.514;8.294;2023-02-03T14:09:39;9.70;99.90
563;DHT22;266;49.514;8.294;2023-02-03T14:12:34;9.70;99.90
563;DHT22;266;49.514;8.294;2023-02-03T14:15:33;9.70;99.90
563;DHT22;266;49.514;8.294;2023-02-03T14:18:33;9.70;99.90
563;DHT22;266;49.514;8.294;2023-02-03T14:21:13;9.60;99.90
563;DHT22;266;49.514;8.294;2023-02-03T14:23:53;9.70;99.90
563;DHT22;266;49.514;8.294;2023-02-03T14:26:43;9.60;99.90
563;DHT22;266;49.514;8.294;2023-02-03T14:29:25;9.60;99.90
563;DHT22;266;49.514;8.294;2023-02-03T14:31:56;9.70;99.90
563;DHT22;266;49.514;8.294;2023-02-03T14:34:30;9.70;99.90
563;DHT22;266;49.514;8.294;2023-02-03T14:37:14;9.70;99.90
563;DHT22;266;49.514;8.294;2023-02-03T14:40:08;9.70;99.90
563;DHT22;266;49.514;8.294;2023-02-03T14:43:01;9.60;99.90
563;DHT22;266;49.514;8.294;2023-02-03T14:46:10;9.60;99.90
563;DHT22;266;49.514;8.294;2023-02-03T14:49:11;9.60;99.90
563;DHT22;266;49.514;8.294;2023-02-03T14:51:53;9.60;99.90
563;DHT22;266;49.514;8.294;2023-02-03T14:54:36;9.60;99.90
563;DHT22;266;49.514;8.294;2023-02-03T14:57:17;9.60;99.90
563;DHT22;266;49.514;8.294;2023-02-03T14:59:53;9.60;99.90
563;DHT22;266;49.514;8.294;2023-02-03T15:02:26;9.60;99.90
563;DHT22;266;49.514;8.294;2023-02-03T15:07:59;9.60;99.90
563;DHT22;266;49.514;8.294;2023-02-03T15:10:39;9.60;99.90
563;DHT22;266;49.514;8.294;2023-02-03T15:13:23;9.70;99.90
563;DHT22;266;49.514;8.294;2023-02-03T15:15:52;9.70;99.90
563;DHT22;266;49.514;8.294;2023-02-03T15:18:28;9.60;99.90
563;DHT22;266;49.514;8.294;2023-02-03T15:20:58;9.60;99.90
563;DHT22;266;49.514;8.294;2023-02-03T15:23:27;9.60;99.90
563;DHT22;266;49.514;8.294;2023-02-03T15:25:56;9.60;99.90
563;DHT22;266;49.514;8.294;2023-02-03T15:28:26;9.60;99.90
563;DHT22;266;49.514;8.294;2023-02-03T15:30:57;9.60;99.90
563;DHT22;266;49.514;8.294;2023-02-03T15:33:28;9.60;99.90
563;DHT22;266;49.514;8.294;2023-02-03T15:36:01;9.60;99.90
563;DHT22;266;49.514;8.294;2023-02-03T15:38:34;9.60;99.90
563;DHT22;266;49.514;8.294;2023-02-03T15:41:06;9.60;99.90
563;DHT22;266;49.514;8.294;2023-02-03T15:43:37;9.60;99.90
563;DHT22;266;49.514;8.294;2023-02-03T15:46:08;9.60;99.90
563;DHT22;266;49.514;8.294;2023-02-03T15:48:45;9.60;99.90
563;DHT22;266;49.514;8.294;2023-02-03T15:51:20;9.60;99.90
563;DHT22;266;49.514;8.294;2023-02-03T15:53:53;9.60;99.90
563;DHT22;266;49.514;8.294;2023-02-03T15:56:29;9.60;99.90
563;DHT22;266;49.514;8.294;2023-02-03T15:59:03;9.60;99.90
563;DHT22;266;49.514;8.294;2023-02-03T16:01:32;9.60;99.90
563;DHT22;266;49.514;8.294;2023-02-03T16:04:09;9.50;99.90
563;DHT22;266;49.514;8.294;2023-02-03T16:06:39;9.50;99.90
563;DHT22;266;49.514;8.294;2023-02-03T16:09:30;9.50;99.90
563;DHT22;266;49.514;8.294;2023-02-03T16:12:03;9.50;99.90
563;DHT22;266;49.514;8.294;2023-02-03T16:14:33;9.50;99.90
563;DHT22;266;49.514;8.294;2023-02-03T16:17:02;9.50;99.90
563;DHT22;266;49.514;8.294;2023-02-03T16:19:33;9.50;99.90
563;DHT22;266;49.514;8.294;2023-02-03T16:22:26;9.50;99.90
563;DHT22;266;49.514;8.294;2023-02-03T16:25:13;9.50;99.90
563;DHT22;266;49.514;8.294;2023-02-03T16:27:43;9.50;99.90
563;DHT22;266;49.514;8.294;2023-02-03T16:30:21;9.50;99.90
563;DHT22;266;49.514;8.294;2023-02-03T16:33:13;9.50;99.90
563;DHT22;266;49.514;8.294;2023-02-03T16:36:08;9.60;99.90
563;DHT22;266;49.514;8.294;2023-02-03T16:38:54;9.60;99.90
563;DHT22;266;49.514;8.294;2023-02-03T16:41:40;9.60;99.90
563;DHT22;266;49.514;8.294;2023-02-03T16:44:25;9.60;99.90
563;DHT22;266;49.514;8.294;2023-02-03T16:47:22;9.60;99.90
563;DHT22;266;49.514;8.294;2023-02-03T16:50:11;9.70;99.90
563;DHT22;266;49.514;8.294;2023-02-03T16:53:08;9.70;99.90
563;DHT22;266;49.514;8.294;2023-02-03T16:55:38;9.70;99.90
563;DHT22;266;49.514;8.294;2023-02-03T16:58:06;9.70;99.90
563;DHT22;266;49.514;8.294;2023-02-03T17:00:35;9.60;99.90
563;DHT22;266;49.514;8.294;2023-02-03T17:03:08;9.70;99.90
563;DHT22;266;49.514;8.294;2023-02-03T17:05:36;9.70;99.90
563;DHT22;266;49.514;8.294;2023-02-03T17:08:06;9.60;99.90
563;DHT22;266;49.514;8.294;2023-02-03T17:10:35;9.60;99.90
563;DHT22;266;49.514;8.294;2023-02-03T17:13:03;9.60;99.90
563;DHT22;266;49.514;8.294;2023-02-03T17:15:31;9.60;99.90
563;DHT22;266;49.514;8.294;2023-02-03T17:18:00;9.60;99.90
563;DHT22;266;49.514;8.294;2023-02-03T17:20:27;9.60;99.90
563;DHT22;266;49.514;8.294;2023-02-03T17:22:55;9.60;99.90
563;DHT22;266;49.514;8.294;2023-02-03T17:25:25;9.50;99.90
563;DHT22;266;49.514;8.294;2023-02-03T17:27:53;9.50;99.90
563;DHT22;266;49.514;8.294;2023-02-03T17:30:21;9.50;99.90
563;DHT22;266;49.514;8.294;2023-02-03T17:32:49;9.50;99.90
563;DHT22;266;49.514;8.294;2023-02-03T17:35:17;9.40;99.90
563;DHT22;266;49.514;8.294;2023-02-03T17:37:45;9.30;99.90
563;DHT22;266;49.514;8.294;2023-02-03T17:40:13;9.30;99.90